(Default Airport = EGHI - Southampton International)

METAR = EGHI 121750Z 17005KT 130V210 CAVOK 30/16 Q1011

STATION........ EGHI
OBSERVED....... Wed Aug 12, 18:50 BST
NOW............ Wed Aug 12, 22:11 BST
AGE............ 3:21 hr ago
WIND........... S at 6 mph
VISIBILITY..... greater than 7 miles
CLOUDS......... clear skies
TEMP........... 86°F (30°C)
DEWPT.......... 61°F (16°C)
HUMIDITY....... 43%
HEAT INDEX..... 86°F (30°C)
BAROMETER...... 1011 hPa (29.85 in Hg)


    Get Weather Info from Airport: